createdAt,value
2018-10-03T00:02:21.436Z,96.10
2018-10-03T00:04:49.825Z,95.70
2018-10-03T00:07:18.205Z,95.50
2018-10-03T00:09:46.624Z,95.30
2018-10-03T00:12:14.990Z,95.20
2018-10-03T00:14:43.378Z,95.20
2018-10-03T00:17:11.760Z,94.70
2018-10-03T00:19:40.211Z,94.80
2018-10-03T00:22:08.958Z,94.80
2018-10-03T00:24:37.315Z,94.50
2018-10-03T00:27:05.783Z,94.80
2018-10-03T00:29:34.205Z,94.60
2018-10-03T00:32:02.541Z,94.20
2018-10-03T00:34:30.918Z,94.30
2018-10-03T00:36:59.269Z,94.10
2018-10-03T00:39:27.683Z,94.40
2018-10-03T00:41:56.060Z,94.00
2018-10-03T00:44:24.493Z,93.80
2018-10-03T00:46:52.873Z,93.90
2018-10-03T00:49:21.276Z,93.90
2018-10-03T00:51:49.611Z,93.70
2018-10-03T00:54:17.951Z,93.40
2018-10-03T00:56:46.867Z,93.10
2018-10-03T00:59:15.281Z,93.20
2018-10-03T01:01:43.664Z,93.00
2018-10-03T01:04:12.091Z,92.90
2018-10-03T01:06:40.826Z,92.60
2018-10-03T01:09:09.302Z,92.50
2018-10-03T01:11:37.720Z,93.00
2018-10-03T01:14:06.476Z,92.70
2018-10-03T01:16:34.852Z,92.40
2018-10-03T01:19:03.256Z,92.60
2018-10-03T01:21:31.821Z,92.40
2018-10-03T01:24:00.257Z,93.10
2018-10-03T01:26:28.665Z,94.00
2018-10-03T01:28:57.057Z,95.10
2018-10-03T01:31:25.432Z,96.30
2018-10-03T01:33:53.771Z,96.40
2018-10-03T01:36:22.121Z,96.90
2018-10-03T01:38:50.475Z,97.60
2018-10-03T01:41:18.836Z,97.00
2018-10-03T01:43:47.155Z,97.20
2018-10-03T01:46:15.594Z,96.60
2018-10-03T01:48:43.984Z,96.50
2018-10-03T01:51:12.371Z,96.00
2018-10-03T01:53:40.883Z,95.70
2018-10-03T01:56:09.254Z,95.60
2018-10-03T01:58:37.584Z,96.00
2018-10-03T02:01:05.983Z,95.90
2018-10-03T02:03:34.375Z,95.40
2018-10-03T02:06:02.727Z,95.60
2018-10-03T02:08:31.105Z,95.40
2018-10-03T02:10:59.502Z,95.00
2018-10-03T02:13:27.957Z,95.30
2018-10-03T02:15:56.323Z,94.80
2018-10-03T02:18:24.658Z,94.60
2018-10-03T02:20:53.045Z,94.50
2018-10-03T02:23:21.419Z,94.20
2018-10-03T02:25:49.811Z,94.30
2018-10-03T02:28:18.195Z,94.10
2018-10-03T02:30:46.565Z,93.80
2018-10-03T02:33:14.914Z,93.70
2018-10-03T02:35:43.278Z,93.50
2018-10-03T02:38:11.675Z,93.20
2018-10-03T02:40:40.047Z,93.00
2018-10-03T02:43:08.444Z,93.10
2018-10-03T02:45:36.821Z,92.90
2018-10-03T02:48:05.245Z,92.90
2018-10-03T02:50:33.634Z,92.80
2018-10-03T02:53:02.086Z,92.80
2018-10-03T02:55:30.473Z,92.60
2018-10-03T02:57:58.864Z,92.90
2018-10-03T03:00:27.248Z,92.80
2018-10-03T03:02:55.601Z,93.20
2018-10-03T03:05:23.986Z,92.90
2018-10-03T03:07:52.409Z,93.00
2018-10-03T03:10:20.793Z,93.30
2018-10-03T03:12:49.143Z,93.10
2018-10-03T03:15:17.522Z,92.90
2018-10-03T03:20:20.609Z,92.90
2018-10-03T03:22:49.057Z,92.80
2018-10-03T03:25:17.519Z,92.80
2018-10-03T03:27:45.894Z,92.70
2018-10-03T03:30:14.268Z,93.00
2018-10-03T03:32:42.638Z,92.90
2018-10-03T03:35:10.983Z,92.80
2018-10-03T03:37:39.362Z,92.70
2018-10-03T03:40:07.723Z,92.80
2018-10-03T03:42:36.195Z,92.20
2018-10-03T03:45:04.609Z,92.30
2018-10-03T03:47:33.069Z,92.30
2018-10-03T03:50:01.455Z,92.40
2018-10-03T03:52:29.877Z,91.90
2018-10-03T03:54:58.291Z,91.90
2018-10-03T03:57:26.650Z,92.20
2018-10-03T03:59:55.033Z,92.30
2018-10-03T04:02:23.424Z,91.80
2018-10-03T04:04:51.784Z,91.70
2018-10-03T04:07:20.191Z,91.90
2018-10-03T04:09:48.529Z,92.00
2018-10-03T04:12:16.961Z,91.90
2018-10-03T04:14:45.318Z,91.80
2018-10-03T04:17:13.729Z,91.80
2018-10-03T04:19:42.122Z,91.50
2018-10-03T04:22:10.536Z,91.60
2018-10-03T04:24:38.900Z,91.50
2018-10-03T04:27:07.312Z,91.50
2018-10-03T04:29:35.656Z,91.30
2018-10-03T04:32:04.069Z,91.40
2018-10-03T04:34:32.475Z,91.10
2018-10-03T04:37:00.866Z,90.60
2018-10-03T04:39:29.204Z,90.50
2018-10-03T04:41:57.592Z,90.60
2018-10-03T04:44:25.967Z,90.70
2018-10-03T04:46:54.370Z,91.00
2018-10-03T04:49:22.765Z,90.90
2018-10-03T04:51:51.146Z,90.90
2018-10-03T04:54:19.527Z,91.10
2018-10-03T04:56:48.018Z,91.60
2018-10-03T04:59:16.552Z,91.70
2018-10-03T05:01:44.996Z,91.60
2018-10-03T05:04:13.376Z,91.30
2018-10-03T05:06:41.878Z,91.20
2018-10-03T05:09:10.239Z,90.80
2018-10-03T05:11:38.611Z,90.90
2018-10-03T05:14:06.987Z,90.90
2018-10-03T05:16:35.380Z,90.70
2018-10-03T05:19:03.883Z,90.80
2018-10-03T05:21:32.337Z,90.60
2018-10-03T05:24:00.762Z,90.70
2018-10-03T05:26:29.227Z,90.80
2018-10-03T05:28:57.665Z,90.80
2018-10-03T05:31:26.075Z,90.60
2018-10-03T05:33:54.709Z,90.80
2018-10-03T05:36:23.076Z,91.00
2018-10-03T05:38:51.468Z,90.80
2018-10-03T05:41:19.881Z,91.00
2018-10-03T05:43:48.352Z,91.50
2018-10-03T05:46:16.739Z,91.20
2018-10-03T05:48:45.406Z,91.30
2018-10-03T05:51:13.919Z,91.60
2018-10-03T05:53:42.530Z,91.40
2018-10-03T05:56:11.109Z,91.40
2018-10-03T05:58:39.606Z,91.30
2018-10-03T06:01:08.022Z,91.10
2018-10-03T06:03:36.423Z,90.90
2018-10-03T06:06:05.019Z,91.30
2018-10-03T06:08:33.554Z,91.30
2018-10-03T06:11:01.974Z,91.30
2018-10-03T06:13:30.572Z,91.20
2018-10-03T06:15:59.424Z,90.80
2018-10-03T06:18:27.897Z,90.70
2018-10-03T06:20:56.840Z,90.80
2018-10-03T06:23:25.359Z,90.80
2018-10-03T06:25:53.893Z,90.80
2018-10-03T06:28:22.436Z,90.40
2018-10-03T06:30:50.805Z,90.20
2018-10-03T06:33:19.351Z,90.20
2018-10-03T06:35:47.744Z,90.20
2018-10-03T06:38:16.186Z,90.30
2018-10-03T06:40:44.577Z,90.10
2018-10-03T06:43:12.994Z,90.10
2018-10-03T06:45:41.621Z,89.60
2018-10-03T06:48:10.005Z,90.00
2018-10-03T06:50:38.394Z,90.20
2018-10-03T06:53:07.295Z,89.10
2018-10-03T06:55:35.686Z,88.80
2018-10-03T06:58:04.134Z,89.50
2018-10-03T07:00:32.597Z,89.00
2018-10-03T07:03:01.000Z,88.60
2018-10-03T07:05:29.584Z,89.00
2018-10-03T07:07:58.063Z,88.40
2018-10-03T07:10:26.500Z,88.60
2018-10-03T07:12:54.936Z,88.90
2018-10-03T07:15:23.446Z,89.00
2018-10-03T07:17:51.863Z,88.60
2018-10-03T07:20:20.312Z,88.30
2018-10-03T07:22:48.739Z,87.60
2018-10-03T07:25:17.121Z,87.60
2018-10-03T07:27:45.493Z,87.50
2018-10-03T07:30:13.921Z,86.60
2018-10-03T07:32:42.356Z,86.90
2018-10-03T07:35:10.760Z,87.70
2018-10-03T07:37:39.133Z,88.40
2018-10-03T07:40:07.639Z,88.30
2018-10-03T07:42:36.032Z,88.50
2018-10-03T07:45:04.532Z,88.50
2018-10-03T07:47:33.191Z,87.80
2018-10-03T07:50:01.645Z,85.90
2018-10-03T07:52:30.060Z,85.50
2018-10-03T07:54:58.500Z,85.00
2018-10-03T07:57:26.864Z,86.40
2018-10-03T07:59:55.278Z,84.10
2018-10-03T08:02:23.643Z,85.10
2018-10-03T08:04:58.877Z,85.60
2018-10-03T08:07:27.255Z,85.20
2018-10-03T08:09:55.666Z,84.40
2018-10-03T08:12:24.079Z,84.20
2018-10-03T08:14:52.586Z,84.80
2018-10-03T08:17:21.080Z,85.80
2018-10-03T08:19:49.499Z,86.10
2018-10-03T08:22:17.918Z,85.40
2018-10-03T08:24:46.488Z,85.30
2018-10-03T08:27:15.099Z,83.10
2018-10-03T08:29:43.607Z,83.50
2018-10-03T08:32:12.014Z,82.60
2018-10-03T08:34:40.442Z,80.90
2018-10-03T08:37:08.841Z,80.30
2018-10-03T08:39:37.456Z,79.20
2018-10-03T08:42:05.968Z,79.40
2018-10-03T08:44:34.369Z,78.30
2018-10-03T08:47:02.925Z,78.60
2018-10-03T08:49:31.409Z,78.40
2018-10-03T08:51:59.912Z,79.10
2018-10-03T08:54:28.309Z,79.50
2018-10-03T08:56:56.826Z,79.80
2018-10-03T08:59:25.240Z,77.80
2018-10-03T09:01:53.677Z,78.30
2018-10-03T09:04:23.157Z,78.10
2018-10-03T09:06:51.562Z,78.70
2018-10-03T09:09:20.067Z,79.40
2018-10-03T09:11:48.555Z,79.10
2018-10-03T09:14:16.933Z,79.20
2018-10-03T09:16:45.456Z,79.30
2018-10-03T09:19:13.907Z,76.80
2018-10-03T09:21:42.405Z,77.60
2018-10-03T09:24:10.840Z,78.10
2018-10-03T09:26:39.371Z,77.10
2018-10-03T09:29:07.895Z,78.10
2018-10-03T09:31:36.447Z,78.30
2018-10-03T09:34:04.889Z,76.70
2018-10-03T09:36:33.298Z,75.30
2018-10-03T09:39:01.682Z,72.90
2018-10-03T09:41:30.164Z,72.30
2018-10-03T09:43:58.561Z,71.60
2018-10-03T09:46:27.017Z,72.00
2018-10-03T09:48:55.400Z,72.10
2018-10-03T09:51:23.829Z,72.40
2018-10-03T09:53:52.533Z,73.80
2018-10-03T09:56:21.005Z,71.70
2018-10-03T09:58:49.406Z,70.30
2018-10-03T10:01:23.135Z,72.40
2018-10-03T10:03:51.533Z,73.90
2018-10-03T10:06:19.918Z,73.90
2018-10-03T10:08:48.366Z,74.40
2018-10-03T10:11:16.882Z,75.00
2018-10-03T10:13:45.358Z,74.50
2018-10-03T10:16:13.796Z,74.40
2018-10-03T10:18:42.248Z,74.40
2018-10-03T10:21:10.812Z,74.40
2018-10-03T10:23:39.314Z,72.60
2018-10-03T10:26:07.812Z,72.90
2018-10-03T10:28:36.403Z,73.30
2018-10-03T10:31:05.035Z,71.50
2018-10-03T10:33:33.423Z,69.10
2018-10-03T10:36:01.846Z,68.50
2018-10-03T10:38:30.252Z,71.40
2018-10-03T10:40:58.796Z,74.80
2018-10-03T10:43:27.302Z,76.70
2018-10-03T10:45:55.665Z,81.50
2018-10-03T10:48:24.180Z,81.10
2018-10-03T10:50:52.744Z,85.90
2018-10-03T10:53:21.136Z,85.80
2018-10-03T10:55:49.728Z,81.10
2018-10-03T10:58:18.198Z,78.80
2018-10-03T11:00:46.741Z,73.40
2018-10-03T11:03:15.205Z,71.00
2018-10-03T11:05:43.869Z,69.90
2018-10-03T11:08:12.356Z,70.50
2018-10-03T11:10:40.769Z,71.70
2018-10-03T11:13:09.219Z,76.30
2018-10-03T11:15:37.603Z,81.20
2018-10-03T11:18:06.027Z,85.00
2018-10-03T11:20:34.585Z,88.40
2018-10-03T11:23:03.308Z,90.50
2018-10-03T11:25:31.812Z,90.90
2018-10-03T11:28:00.298Z,90.70
2018-10-03T11:30:29.206Z,90.40
2018-10-03T11:32:57.605Z,85.80
2018-10-03T11:35:26.338Z,86.40
2018-10-03T11:37:55.131Z,82.20
2018-10-03T11:40:24.696Z,83.10
2018-10-03T11:42:55.118Z,83.00
2018-10-03T11:45:23.753Z,84.00
2018-10-03T11:47:52.265Z,79.50
2018-10-03T11:50:20.814Z,76.80
2018-10-03T11:52:54.632Z,75.90
2018-10-03T11:55:25.245Z,75.00
2018-10-03T11:57:53.739Z,74.00
2018-10-03T12:00:22.137Z,71.80
2018-10-03T12:02:50.748Z,70.10
2018-10-03T12:05:19.119Z,68.40
2018-10-03T12:07:47.906Z,66.80
2018-10-03T12:10:16.231Z,63.10
2018-10-03T12:12:44.702Z,61.10
2018-10-03T12:15:13.685Z,61.20
2018-10-03T12:17:44.492Z,61.50
2018-10-03T12:20:15.054Z,60.10
2018-10-03T12:22:44.380Z,62.60
2018-10-03T12:25:18.919Z,62.30
2018-10-03T12:28:07.200Z,63.50
2018-10-03T12:31:14.847Z,63.00
2018-10-03T12:33:43.272Z,61.70
2018-10-03T12:36:11.934Z,61.00
2018-10-03T12:38:40.568Z,60.90
2018-10-03T12:41:09.276Z,60.50
2018-10-03T12:43:38.692Z,60.60
2018-10-03T12:46:07.287Z,60.80
2018-10-03T12:48:35.685Z,60.90
2018-10-03T12:51:04.014Z,61.80
2018-10-03T12:53:32.485Z,61.60
2018-10-03T12:56:00.789Z,57.90
2018-10-03T12:58:30.130Z,54.60
2018-10-03T13:00:59.562Z,53.70
2018-10-03T13:03:28.911Z,52.70
2018-10-03T13:05:59.378Z,52.90
2018-10-03T13:08:28.780Z,53.50
2018-10-03T13:11:00.480Z,52.10
2018-10-03T13:13:29.917Z,52.30
2018-10-03T13:15:59.936Z,50.50
2018-10-03T13:18:29.331Z,48.90
2018-10-03T13:20:59.302Z,47.90
2018-10-03T13:23:29.578Z,46.50
2018-10-03T13:25:59.604Z,45.70
2018-10-03T13:28:29.090Z,44.00
2018-10-03T13:30:59.600Z,45.10
2018-10-03T13:33:29.584Z,43.80
2018-10-03T13:36:03.699Z,43.60
2018-10-03T13:38:33.422Z,43.70
2018-10-03T13:41:02.988Z,42.90
2018-10-03T13:43:32.588Z,42.10
2018-10-03T13:46:13.137Z,41.70
2018-10-03T13:48:42.694Z,42.50
2018-10-03T13:51:12.526Z,41.90
2018-10-03T13:53:43.024Z,43.40
2018-10-03T13:56:12.762Z,44.40
2018-10-03T13:58:42.261Z,45.70
2018-10-03T14:01:12.157Z,46.90
2018-10-03T14:03:42.250Z,47.30
2018-10-03T14:06:11.722Z,46.20
2018-10-03T14:08:41.311Z,45.90
2018-10-03T14:11:11.269Z,46.80
2018-10-03T14:13:41.259Z,47.60
2018-10-03T14:16:10.706Z,47.60
2018-10-03T14:18:40.317Z,47.90
2018-10-03T14:21:09.825Z,47.80
2018-10-03T14:23:39.541Z,47.80
2018-10-03T14:26:09.595Z,46.20
2018-10-03T14:28:40.112Z,46.10
2018-10-03T14:31:10.384Z,45.60
2018-10-03T14:33:39.972Z,45.80
2018-10-03T14:36:11.604Z,45.40
2018-10-03T14:38:41.053Z,45.50
2018-10-03T14:41:13.216Z,46.20
2018-10-03T14:43:43.530Z,45.80
2018-10-03T14:46:13.037Z,46.30
2018-10-03T14:48:43.897Z,47.10
2018-10-03T14:51:13.368Z,47.80
2018-10-03T14:53:44.069Z,48.20
2018-10-03T14:56:14.146Z,48.30
2018-10-03T14:58:43.549Z,48.00
2018-10-03T15:01:12.976Z,48.10
2018-10-03T15:03:42.409Z,47.40
2018-10-03T15:06:11.985Z,47.30
2018-10-03T15:08:41.380Z,48.40
2018-10-03T15:11:11.279Z,47.30
2018-10-03T15:13:40.799Z,47.50
2018-10-03T15:16:10.938Z,48.30
2018-10-03T15:18:40.189Z,49.20
2018-10-03T15:21:09.503Z,49.10
2018-10-03T15:23:38.890Z,48.80
2018-10-03T15:26:08.291Z,47.80
2018-10-03T15:28:37.665Z,48.30
2018-10-03T15:31:06.944Z,47.10
2018-10-03T15:33:35.373Z,47.50
2018-10-03T15:36:03.917Z,47.00
2018-10-03T15:38:32.390Z,46.90
2018-10-03T15:41:00.906Z,47.50
2018-10-03T15:43:29.295Z,48.10
2018-10-03T15:45:57.761Z,46.70
2018-10-03T15:48:26.206Z,48.10
2018-10-03T15:50:54.686Z,48.50
2018-10-03T15:53:23.093Z,49.80
2018-10-03T15:55:51.473Z,49.80
2018-10-03T15:58:19.937Z,50.40
2018-10-03T16:00:50.729Z,50.20
2018-10-03T16:03:19.571Z,51.50
2018-10-03T16:05:47.962Z,51.60
2018-10-03T16:08:16.368Z,52.10
2018-10-03T16:10:44.955Z,52.80
2018-10-03T16:13:13.401Z,53.20
2018-10-03T16:15:41.822Z,54.00
2018-10-03T16:18:10.537Z,55.70
2018-10-03T16:20:38.987Z,54.80
2018-10-03T16:23:07.433Z,54.80
2018-10-03T16:25:35.874Z,55.00
2018-10-03T16:28:04.326Z,55.60
2018-10-03T16:30:32.759Z,55.90
2018-10-03T16:33:01.177Z,56.70
2018-10-03T16:35:30.843Z,57.00
2018-10-03T16:37:59.355Z,57.60
2018-10-03T16:40:27.833Z,57.50
2018-10-03T16:42:56.418Z,57.90
2018-10-03T16:45:24.815Z,58.70
2018-10-03T16:47:53.502Z,58.70
2018-10-03T16:50:21.893Z,58.80
2018-10-03T16:52:50.307Z,59.30
2018-10-03T16:55:18.731Z,59.60
2018-10-03T16:57:47.115Z,60.10
2018-10-03T17:00:15.515Z,62.00
2018-10-03T17:02:44.190Z,62.00
2018-10-03T17:05:12.614Z,63.00
2018-10-03T17:07:41.581Z,64.10
2018-10-03T17:10:09.988Z,65.40
2018-10-03T17:12:38.418Z,66.50
2018-10-03T17:15:07.005Z,67.50
2018-10-03T17:17:35.453Z,68.00
2018-10-03T17:20:03.972Z,69.10
2018-10-03T17:22:32.350Z,70.10
2018-10-03T17:25:00.823Z,71.00
2018-10-03T17:27:29.300Z,72.10
2018-10-03T17:29:57.737Z,72.60
2018-10-03T17:32:26.145Z,72.80
2018-10-03T17:34:54.533Z,73.30
2018-10-03T17:37:25.080Z,73.40
2018-10-03T17:39:53.460Z,74.30
2018-10-03T17:42:21.905Z,73.50
2018-10-03T17:44:50.317Z,73.80
2018-10-03T17:47:18.726Z,73.70
2018-10-03T17:49:47.197Z,73.50
2018-10-03T17:52:15.584Z,73.50
2018-10-03T17:54:45.490Z,73.60
2018-10-03T17:57:14.037Z,74.50
2018-10-03T17:59:42.435Z,73.30
2018-10-03T18:02:13.548Z,73.20
2018-10-03T18:04:42.743Z,73.10
2018-10-03T18:07:11.184Z,73.00
2018-10-03T18:09:39.719Z,73.40
2018-10-03T18:12:08.212Z,73.50
2018-10-03T18:14:36.761Z,74.20
2018-10-03T18:17:05.311Z,72.10
2018-10-03T18:19:33.784Z,72.70
2018-10-03T18:22:02.988Z,73.00
2018-10-03T18:24:31.430Z,73.80
2018-10-03T18:26:59.920Z,73.20
2018-10-03T18:29:28.465Z,73.20
2018-10-03T18:31:56.861Z,73.90
2018-10-03T18:34:25.287Z,73.90
2018-10-03T18:36:53.745Z,74.30
2018-10-03T18:39:22.265Z,74.30
2018-10-03T18:41:50.754Z,74.80
2018-10-03T18:44:19.210Z,75.40
2018-10-03T18:46:47.739Z,75.90
2018-10-03T18:49:16.138Z,75.80
2018-10-03T18:51:44.575Z,76.10
2018-10-03T18:54:13.011Z,75.60
2018-10-03T18:56:41.576Z,75.90
2018-10-03T18:59:10.408Z,76.40
2018-10-03T19:01:38.836Z,76.30
2018-10-03T19:04:08.266Z,76.50
2018-10-03T19:06:36.931Z,76.40
2018-10-03T19:09:08.309Z,76.80
2018-10-03T19:11:36.892Z,76.70
2018-10-03T19:14:05.486Z,77.30
2018-10-03T19:16:33.951Z,77.20
2018-10-03T19:19:02.902Z,77.50
2018-10-03T19:21:31.624Z,77.50
2018-10-03T19:24:00.371Z,77.90
2018-10-03T19:26:28.927Z,78.00
2018-10-03T19:28:57.456Z,78.30
2018-10-03T19:31:25.899Z,78.10
2018-10-03T19:33:54.483Z,78.50
2018-10-03T19:36:22.894Z,78.40
2018-10-03T19:38:51.602Z,78.60
2018-10-03T19:41:20.065Z,78.70
2018-10-03T19:43:48.677Z,79.10
2018-10-03T19:46:17.069Z,79.00
2018-10-03T19:48:45.477Z,79.50
2018-10-03T19:51:13.928Z,79.40
2018-10-03T19:53:42.348Z,79.10
2018-10-03T19:56:10.707Z,79.00
2018-10-03T19:58:39.170Z,79.90
2018-10-03T20:01:07.587Z,79.50
2018-10-03T20:03:36.029Z,79.80
2018-10-03T20:06:04.438Z,79.10
2018-10-03T20:08:32.833Z,79.30
2018-10-03T20:11:01.233Z,79.30
2018-10-03T20:13:29.642Z,80.00
2018-10-03T20:15:58.001Z,79.30
2018-10-03T20:18:27.228Z,79.60
2018-10-03T20:20:55.625Z,79.80
2018-10-03T20:23:24.059Z,80.20
2018-10-03T20:25:52.493Z,80.20
2018-10-03T20:28:20.929Z,80.40
2018-10-03T20:30:49.536Z,80.20
2018-10-03T20:33:17.987Z,80.20
2018-10-03T20:35:46.410Z,80.70
2018-10-03T20:38:14.891Z,81.80
2018-10-03T20:40:43.363Z,81.90
2018-10-03T20:43:12.002Z,81.50
2018-10-03T20:45:40.388Z,81.90
2018-10-03T20:48:09.529Z,82.20
2018-10-03T20:50:38.007Z,81.90
2018-10-03T20:53:06.505Z,82.40
2018-10-03T20:55:34.990Z,82.20
2018-10-03T20:58:03.393Z,82.40
2018-10-03T21:00:32.229Z,82.30
2018-10-03T21:03:01.302Z,82.50
2018-10-03T21:05:29.731Z,82.70
2018-10-03T21:07:58.130Z,83.20
2018-10-03T21:10:26.508Z,83.40
2018-10-03T21:12:55.261Z,83.40
2018-10-03T21:15:23.679Z,83.70
2018-10-03T21:17:52.081Z,84.00
2018-10-03T21:20:20.529Z,84.30
2018-10-03T21:22:48.904Z,84.30
2018-10-03T21:25:17.588Z,84.80
2018-10-03T21:27:46.051Z,85.10
2018-10-03T21:30:14.499Z,85.40
2018-10-03T21:32:43.279Z,85.50
2018-10-03T21:35:11.690Z,85.60
2018-10-03T21:37:40.395Z,86.30
2018-10-03T21:40:08.877Z,86.20
2018-10-03T21:42:37.314Z,86.60
2018-10-03T21:45:06.242Z,87.00
2018-10-03T21:47:34.635Z,86.90
2018-10-03T21:50:05.091Z,87.20
2018-10-03T21:52:33.662Z,87.20
2018-10-03T21:55:10.442Z,87.60
2018-10-03T21:57:38.840Z,88.00
2018-10-03T22:00:08.021Z,87.70
2018-10-03T22:02:36.572Z,88.50
2018-10-03T22:05:07.403Z,87.60
2018-10-03T22:07:35.949Z,87.80
2018-10-03T22:10:04.500Z,87.70
2018-10-03T22:12:32.866Z,88.00
2018-10-03T22:15:01.257Z,88.00
2018-10-03T22:17:29.664Z,88.10
2018-10-03T22:19:58.094Z,88.40
2018-10-03T22:22:26.541Z,89.20
2018-10-03T22:24:54.921Z,88.40
2018-10-03T22:27:23.289Z,88.70
2018-10-03T22:29:51.695Z,88.70
2018-10-03T22:32:20.029Z,88.80
2018-10-03T22:34:48.441Z,88.90
2018-10-03T22:37:16.793Z,89.10
2018-10-03T22:39:45.171Z,89.30
2018-10-03T22:42:13.555Z,89.40
2018-10-03T22:44:41.932Z,90.00
2018-10-03T22:47:10.352Z,89.80
2018-10-03T22:49:38.827Z,90.10
2018-10-03T22:52:07.210Z,90.10
2018-10-03T22:54:35.663Z,90.20
2018-10-03T22:57:04.104Z,90.50
2018-10-03T22:59:33.148Z,90.70
2018-10-03T23:02:02.066Z,90.60
2018-10-03T23:04:30.493Z,90.70
2018-10-03T23:06:58.954Z,91.00
2018-10-03T23:09:27.314Z,91.10
2018-10-03T23:11:56.091Z,91.30
2018-10-03T23:14:25.393Z,91.30
2018-10-03T23:16:53.790Z,91.40
2018-10-03T23:19:22.158Z,91.70
2018-10-03T23:21:50.613Z,91.80
2018-10-03T23:24:18.957Z,92.00
2018-10-03T23:26:47.450Z,92.00
2018-10-03T23:29:15.836Z,92.00
2018-10-03T23:31:44.362Z,92.30
2018-10-03T23:34:12.794Z,92.40
2018-10-03T23:36:41.209Z,92.60
2018-10-03T23:39:11.263Z,92.60
2018-10-03T23:41:39.844Z,92.70
2018-10-03T23:44:08.360Z,92.80
2018-10-03T23:46:36.720Z,92.80
2018-10-03T23:49:05.298Z,92.90
2018-10-03T23:51:33.737Z,92.90
2018-10-03T23:54:02.186Z,92.80
2018-10-03T23:56:30.595Z,92.80
2018-10-03T23:58:58.951Z,92.90
